Briton Ferry, United Kingdom
Current Conditions -  °F | °C
As of 11:50 AM on Thursday 30 Oct 2014 (Local Time) from EGDX Reporting Station
Scattered Clouds Scattered Clouds  
Wind Chill: 61°   Ceiling: Unl
Heat Index: 61°   Visibility: 6mi
Dew Point: 59°   Wind: 8mph
Humidity: 94%   Direction: 120°ESE
Pressure: 30"   Gusts: NA
Location:  51.63°N, 3.82°W
Report Text: EGDX 301150Z 12007KT 9999 FEW028 SCT036 16/15 Q1016 BLU
Loading
Personal Weather Stations






























Interactive Weather Map
Tropical Storm Tracking
New forecast layout! Learn more

10-Day Weather Forecast

Advertisements
Track Severe Weather on mobile